Time;durP1;ratioP1;P1;durP2;ratioP2;P2;SDS_P1;SDS_P2;PMS_P1;PMS_P2;Temp;Humidity;BMP_temperature;BMP_pressure;BME280_temperature;BME280_humidity;BME280_pressure;Samples;Min_cycle;Max_cycle;Signal;HPM_P1;HPM_P2
2023/08/23 00:01:10;;;;;;;5.53;4.53;;;;;;;;;;5070615;28;20186;-78
2023/08/23 00:03:36;;;;;;;5.78;5.15;;;;;;;;;;5055538;28;20260;-78
2023/08/23 00:06:01;;;;;;;4.90;4.45;;;;;;;;;;5051449;28;20198;-78
2023/08/23 00:08:26;;;;;;;8.25;4.60;;;;;;;;;;5051515;28;20225;-78
2023/08/23 00:10:52;;;;;;;5.65;4.25;;;;;;;;;;5053687;28;20177;-78
2023/08/23 00:13:17;;;;;;;6.18;5.57;;;;;;;;;;5070520;28;20170;-78
2023/08/23 00:15:43;;;;;;;5.43;4.50;;;;;;;;;;5071239;28;20181;-78
2023/08/23 00:18:08;;;;;;;5.95;4.63;;;;;;;;;;5058422;28;20181;-78
2023/08/23 00:20:33;;;;;;;5.95;5.30;;;;;;;;;;5069582;28;20242;-78
2023/08/23 00:22:58;;;;;;;5.05;4.32;;;;;;;;;;5052183;28;20189;-78
2023/08/23 00:25:23;;;;;;;6.07;4.85;;;;;;;;;;5071258;28;20220;-78
2023/08/23 00:27:49;;;;;;;6.60;5.25;;;;;;;;;;5051841;28;20172;-78
2023/08/23 00:30:14;;;;;;;5.47;4.97;;;;;;;;;;5065229;28;20177;-78
2023/08/23 00:32:39;;;;;;;5.63;5.13;;;;;;;;;;5053080;28;20182;-78
2023/08/23 00:35:05;;;;;;;6.57;5.38;;;;;;;;;;5052189;28;20178;-78
2023/08/23 00:37:30;;;;;;;8.50;5.20;;;;;;;;;;5052512;28;20177;-78
2023/08/23 00:39:55;;;;;;;9.13;5.35;;;;;;;;;;5052339;28;20188;-78
2023/08/23 00:42:20;;;;;;;8.98;4.40;;;;;;;;;;5055604;28;20191;-78
2023/08/23 00:44:46;;;;;;;4.57;4.18;;;;;;;;;;5070918;28;20174;-78
2023/08/23 00:47:11;;;;;;;4.80;4.25;;;;;;;;;;5052442;28;20173;-79
2023/08/23 00:49:36;;;;;;;5.32;4.82;;;;;;;;;;5051778;28;20184;-78
2023/08/23 00:52:02;;;;;;;6.20;4.63;;;;;;;;;;5051684;28;20242;-78
2023/08/23 00:54:27;;;;;;;5.30;4.75;;;;;;;;;;5056471;28;20177;-78
2023/08/23 00:56:53;;;;;;;5.13;4.53;;;;;;;;;;5069498;28;20177;-78
2023/08/23 00:59:18;;;;;;;5.35;4.60;;;;;;;;;;5052541;28;20181;-78
2023/08/23 01:01:44;;;;;;;5.95;4.88;;;;;;;;;;5051878;28;20351;-78
2023/08/23 01:04:09;;;;;;;5.47;4.82;;;;;;;;;;5051809;28;20185;-78
2023/08/23 01:06:45;;;;;;;6.10;5.10;;;;;;;;;;5050214;28;20244;-78
2023/08/23 01:09:29;;;;;;;5.60;4.45;;;;;;;;;;5053216;28;20236;-78
2023/08/23 01:12:03;;;;;;;5.28;4.75;;;;;;;;;;5051093;28;20173;-78
2023/08/23 01:14:42;;;;;;;5.95;4.25;;;;;;;;;;5051237;28;20187;-78
2023/08/23 01:17:08;;;;;;;5.95;5.28;;;;;;;;;;5050116;28;20208;-78
2023/08/23 01:19:41;;;;;;;5.13;4.68;;;;;;;;;;5069328;28;20201;-78
2023/08/23 01:22:08;;;;;;;5.50;4.97;;;;;;;;;;5067596;28;20177;-78
2023/08/23 01:24:33;;;;;;;6.57;5.05;;;;;;;;;;5050664;28;20227;-78
2023/08/23 01:26:58;;;;;;;7.05;5.00;;;;;;;;;;5051677;28;20173;-78
2023/08/23 01:29:23;;;;;;;6.70;5.35;;;;;;;;;;5049843;28;20247;-78
2023/08/23 01:31:51;;;;;;;6.88;5.18;;;;;;;;;;5051123;28;20269;-78
2023/08/23 01:34:22;;;;;;;7.32;5.63;;;;;;;;;;5051352;28;20173;-78
2023/08/23 01:36:48;;;;;;;8.45;5.90;;;;;;;;;;5055356;28;20177;-78
2023/08/23 01:39:14;;;;;;;5.80;5.18;;;;;;;;;;5052809;28;20185;-78
2023/08/23 01:41:40;;;;;;;6.25;5.60;;;;;;;;;;5054317;28;20170;-78
2023/08/23 01:44:05;;;;;;;5.28;4.88;;;;;;;;;;5052609;28;20177;-78
2023/08/23 01:46:30;;;;;;;5.78;5.35;;;;;;;;;;5069259;28;20224;-78
2023/08/23 01:48:55;;;;;;;7.20;5.22;;;;;;;;;;5057167;28;20174;-78
2023/08/23 01:51:21;;;;;;;5.65;5.15;;;;;;;;;;5073152;28;20181;-78
2023/08/23 01:53:46;;;;;;;7.15;5.50;;;;;;;;;;5056098;28;20173;-78
2023/08/23 01:56:11;;;;;;;6.18;4.93;;;;;;;;;;5056524;28;20184;-78
2023/08/23 01:58:36;;;;;;;6.25;5.10;;;;;;;;;;5058624;28;20173;-78
2023/08/23 02:01:01;;;;;;;5.82;5.10;;;;;;;;;;5059283;28;20182;-78
2023/08/23 02:03:27;;;;;;;6.65;5.30;;;;;;;;;;5056030;28;20276;-78
2023/08/23 02:05:54;;;;;;;7.13;5.68;;;;;;;;;;5055143;28;20256;-78
2023/08/23 02:08:19;;;;;;;5.95;5.45;;;;;;;;;;5059210;28;20221;-79
2023/08/23 02:10:44;;;;;;;6.40;5.88;;;;;;;;;;5054474;28;20191;-78
2023/08/23 02:13:09;;;;;;;7.18;6.40;;;;;;;;;;5055367;28;20173;-78
2023/08/23 02:15:35;;;;;;;7.47;5.18;;;;;;;;;;5055733;28;20177;-78
2023/08/23 02:18:00;;;;;;;6.05;5.47;;;;;;;;;;5056469;28;20178;-78
2023/08/23 02:20:25;;;;;;;6.32;5.47;;;;;;;;;;5072908;28;20178;-78
2023/08/23 02:22:50;;;;;;;5.93;5.38;;;;;;;;;;5073099;28;20181;-78
2023/08/23 02:25:15;;;;;;;6.13;5.53;;;;;;;;;;5057222;28;20315;-78
2023/08/23 02:27:41;;;;;;;7.35;5.78;;;;;;;;;;5054981;28;20181;-78
2023/08/23 02:30:06;;;;;;;6.55;5.88;;;;;;;;;;5054098;28;20231;-78
2023/08/23 02:32:32;;;;;;;5.95;5.30;;;;;;;;;;5054586;28;20219;-78
2023/08/23 02:34:58;;;;;;;10.07;6.32;;;;;;;;;;5055156;28;20181;-78
2023/08/23 02:37:23;;;;;;;6.35;5.75;;;;;;;;;;5073463;28;20169;-78
2023/08/23 02:39:48;;;;;;;5.65;5.10;;;;;;;;;;5055588;28;20196;-78
2023/08/23 02:42:13;;;;;;;5.90;5.28;;;;;;;;;;5056010;28;20181;-78
2023/08/23 02:44:38;;;;;;;7.80;5.93;;;;;;;;;;5055759;28;20189;-79
2023/08/23 02:47:04;;;;;;;6.32;5.72;;;;;;;;;;5072260;28;20185;-79
2023/08/23 02:49:29;;;;;;;6.43;5.82;;;;;;;;;;5054284;28;20177;-79
2023/08/23 02:51:54;;;;;;;6.90;6.20;;;;;;;;;;5055260;28;20173;-79
2023/08/23 02:54:19;;;;;;;10.43;6.13;;;;;;;;;;5055095;28;20181;-78
2023/08/23 02:56:45;;;;;;;7.90;7.20;;;;;;;;;;5070671;28;20234;-78
2023/08/23 02:59:10;;;;;;;6.63;5.77;;;;;;;;;;5055253;28;20177;-78
2023/08/23 03:01:35;;;;;;;6.70;5.80;;;;;;;;;;5053486;28;20192;-78
2023/08/23 03:04:00;;;;;;;6.80;5.40;;;;;;;;;;5068300;28;20184;-78
2023/08/23 03:06:25;;;;;;;6.50;5.85;;;;;;;;;;5053986;28;20200;-78
2023/08/23 03:08:51;;;;;;;6.53;5.60;;;;;;;;;;5057907;28;20274;-78
2023/08/23 03:11:16;;;;;;;6.20;5.18;;;;;;;;;;5055426;28;20177;-78
2023/08/23 03:13:41;;;;;;;5.82;5.32;;;;;;;;;;5054976;28;20275;-78
2023/08/23 03:16:06;;;;;;;8.55;5.50;;;;;;;;;;5056132;28;20205;-78
2023/08/23 03:18:31;;;;;;;11.27;7.27;;;;;;;;;;5068696;28;20234;-79
2023/08/23 03:20:57;;;;;;;8.63;6.97;;;;;;;;;;5053969;28;20193;-79
2023/08/23 03:23:22;;;;;;;8.27;6.13;;;;;;;;;;5053613;28;20192;-78
2023/08/23 03:25:48;;;;;;;7.60;6.77;;;;;;;;;;5069572;28;20248;-78
2023/08/23 03:28:14;;;;;;;7.03;6.50;;;;;;;;;;5050441;28;20173;-79
2023/08/23 03:30:39;;;;;;;9.05;6.88;;;;;;;;;;5052989;28;20180;-79
2023/08/23 03:33:05;;;;;;;9.52;6.05;;;;;;;;;;5052287;28;20168;-79
2023/08/23 03:35:30;;;;;;;7.15;6.32;;;;;;;;;;5053249;28;20176;-78
2023/08/23 03:37:56;;;;;;;7.03;6.40;;;;;;;;;;5053446;28;20184;-78
2023/08/23 03:40:21;;;;;;;6.50;5.68;;;;;;;;;;5072954;28;20187;-78
2023/08/23 03:42:46;;;;;;;7.38;5.93;;;;;;;;;;5054182;28;20181;-78
2023/08/23 03:45:11;;;;;;;6.53;5.53;;;;;;;;;;5054589;28;20280;-78
2023/08/23 03:47:37;;;;;;;6.80;5.93;;;;;;;;;;5053698;28;20170;-79
2023/08/23 03:50:03;;;;;;;8.03;6.33;;;;;;;;;;5052388;28;20229;-78
2023/08/23 03:52:28;;;;;;;6.68;6.18;;;;;;;;;;5056439;28;20244;-78
2023/08/23 03:54:53;;;;;;;7.07;6.43;;;;;;;;;;5060307;28;20200;-78
2023/08/23 03:57:18;;;;;;;7.17;6.20;;;;;;;;;;5054043;28;20183;-79
2023/08/23 03:59:43;;;;;;;6.23;5.70;;;;;;;;;;5054280;28;20264;-79
2023/08/23 04:02:09;;;;;;;7.67;6.20;;;;;;;;;;5051824;28;20207;-79
2023/08/23 04:04:34;;;;;;;7.50;6.80;;;;;;;;;;5052062;28;20185;-78
2023/08/23 04:06:59;;;;;;;7.13;6.13;;;;;;;;;;5053126;28;20208;-78
2023/08/23 04:09:24;;;;;;;6.30;5.70;;;;;;;;;;5070265;28;20308;-78
2023/08/23 04:11:49;;;;;;;6.97;6.38;;;;;;;;;;5053055;28;20177;-78
2023/08/23 04:14:15;;;;;;;8.43;5.90;;;;;;;;;;5052830;28;20189;-78
2023/08/23 04:16:40;;;;;;;7.37;6.67;;;;;;;;;;5052262;28;20182;-78
2023/08/23 04:19:05;;;;;;;7.40;6.33;;;;;;;;;;5052068;28;20196;-79
2023/08/23 04:21:30;;;;;;;6.77;6.07;;;;;;;;;;5070179;28;20180;-79
2023/08/23 04:23:56;;;;;;;6.70;6.10;;;;;;;;;;5053748;28;20184;-79
2023/08/23 04:26:21;;;;;;;8.33;6.00;;;;;;;;;;5052074;28;20227;-79
2023/08/23 04:28:47;;;;;;;8.93;7.17;;;;;;;;;;5053474;28;20177;-79
2023/08/23 04:31:12;;;;;;;6.37;5.87;;;;;;;;;;5070770;28;20195;-78
2023/08/23 04:33:37;;;;;;;7.00;6.40;;;;;;;;;;5046493;28;20181;-78
2023/08/23 04:36:04;;;;;;;7.97;6.10;;;;;;;;;;5052207;28;20271;-79
2023/08/23 04:38:29;;;;;;;7.20;6.00;;;;;;;;;;5053087;28;20175;-79
2023/08/23 04:40:58;;;;;;;7.20;6.50;;;;;;;;;;5070701;28;20214;-79
2023/08/23 04:43:23;;;;;;;7.03;5.97;;;;;;;;;;5051547;28;20252;-79
2023/08/23 04:45:52;;;;;;;6.63;6.03;;;;;;;;;;5051339;28;20284;-81
2023/08/23 04:48:17;;;;;;;6.73;6.10;;;;;;;;;;5049458;28;20184;-87
2023/08/23 04:50:42;;;;;;;6.83;6.23;;;;;;;;;;5051797;28;20230;-87
2023/08/23 04:53:08;;;;;;;6.87;5.83;;;;;;;;;;5053419;28;20263;-87
2023/08/23 04:55:34;;;;;;;6.50;5.80;;;;;;;;;;5052020;28;20186;-87
2023/08/23 04:57:59;;;;;;;6.73;6.10;;;;;;;;;;5053633;28;20196;-87
2023/08/23 05:00:24;;;;;;;21.30;8.40;;;;;;;;;;5053540;28;20180;-87
2023/08/23 05:02:50;;;;;;;9.13;6.33;;;;;;;;;;5070377;28;20184;-87
2023/08/23 05:05:15;;;;;;;5.50;5.03;;;;;;;;;;5069777;28;20208;-86
2023/08/23 05:07:41;;;;;;;6.40;5.90;;;;;;;;;;5052736;28;20201;-87
2023/08/23 05:10:06;;;;;;;6.07;5.57;;;;;;;;;;5051940;28;20281;-87
2023/08/23 05:12:32;;;;;;;9.37;6.37;;;;;;;;;;5050976;28;20264;-87
2023/08/23 05:14:57;;;;;;;27.73;7.57;;;;;;;;;;5050315;28;20180;-88
2023/08/23 05:17:22;;;;;;;14.00;6.47;;;;;;;;;;5052027;28;20257;-87
2023/08/23 05:19:47;;;;;;;7.87;5.93;;;;;;;;;;5053374;28;20175;-87
2023/08/23 05:22:13;;;;;;;7.57;5.80;;;;;;;;;;5067002;28;20168;-87
2023/08/23 05:24:38;;;;;;;9.00;6.03;;;;;;;;;;5052558;28;20182;-87
2023/08/23 05:27:03;;;;;;;8.80;6.27;;;;;;;;;;5067782;28;20222;-87
2023/08/23 05:29:28;;;;;;;6.93;6.33;;;;;;;;;;5051006;28;20184;-87
2023/08/23 05:31:53;;;;;;;7.97;6.17;;;;;;;;;;5070491;28;20171;-88
2023/08/23 05:34:19;;;;;;;9.00;6.57;;;;;;;;;;5049908;28;20169;-87
2023/08/23 05:36:44;;;;;;;13.30;7.00;;;;;;;;;;5053229;28;20184;-87
2023/08/23 05:39:09;;;;;;;6.63;5.70;;;;;;;;;;5052196;28;20183;-86
2023/08/23 05:41:34;;;;;;;8.50;7.07;;;;;;;;;;5069670;28;20255;-87
2023/08/23 05:44:00;;;;;;;9.93;6.03;;;;;;;;;;5053735;28;20202;-87
2023/08/23 05:46:25;;;;;;;7.50;5.50;;;;;;;;;;5052457;28;20196;-87
2023/08/23 05:48:50;;;;;;;6.33;5.80;;;;;;;;;;5054111;28;20207;-87
2023/08/23 05:51:15;;;;;;;8.60;5.40;;;;;;;;;;5053451;28;20181;-87
2023/08/23 05:53:41;;;;;;;7.27;6.57;;;;;;;;;;5051822;28;20185;-87
2023/08/23 05:56:06;;;;;;;6.77;5.87;;;;;;;;;;5052233;28;20170;-85
2023/08/23 05:58:31;;;;;;;5.63;5.10;;;;;;;;;;5069613;28;20194;-87
2023/08/23 06:00:56;;;;;;;7.00;5.90;;;;;;;;;;5051519;28;20174;-87
2023/08/23 06:03:22;;;;;;;6.00;5.37;;;;;;;;;;5052020;28;20172;-84
2023/08/23 06:05:51;;;;;;;7.07;6.37;;;;;;;;;;5049216;28;20258;-84
2023/08/23 06:08:17;;;;;;;6.30;5.53;;;;;;;;;;5068790;28;20227;-84
2023/08/23 06:10:42;;;;;;;6.07;5.43;;;;;;;;;;5052347;28;20181;-84
2023/08/23 06:13:07;;;;;;;5.93;5.33;;;;;;;;;;5052267;28;20268;-85
2023/08/23 06:15:32;;;;;;;5.93;5.43;;;;;;;;;;5046600;28;20197;-84
2023/08/23 06:17:58;;;;;;;6.00;5.50;;;;;;;;;;5050691;28;20186;-84
2023/08/23 06:20:23;;;;;;;6.97;6.38;;;;;;;;;;5052202;28;20178;-84
2023/08/23 06:22:48;;;;;;;7.03;5.80;;;;;;;;;;5050624;28;20263;-84
2023/08/23 06:25:13;;;;;;;7.23;5.90;;;;;;;;;;5049256;28;20274;-84
2023/08/23 06:27:39;;;;;;;6.70;6.10;;;;;;;;;;5051179;28;20183;-84
2023/08/23 06:30:04;;;;;;;6.43;5.53;;;;;;;;;;5052386;28;20168;-84
2023/08/23 06:32:30;;;;;;;89.33;14.73;;;;;;;;;;5063975;28;20182;-84
2023/08/23 06:34:55;;;;;;;12.97;6.10;;;;;;;;;;5050544;28;20177;-84
2023/08/23 06:37:21;;;;;;;9.83;6.67;;;;;;;;;;5055180;28;20181;-84
2023/08/23 06:39:47;;;;;;;6.77;5.53;;;;;;;;;;5056276;28;20208;-84
2023/08/23 06:42:13;;;;;;;7.97;5.53;;;;;;;;;;5055587;28;20180;-84
2023/08/23 06:44:38;;;;;;;5.50;5.00;;;;;;;;;;5053555;28;20173;-84
2023/08/23 06:47:04;;;;;;;10.00;5.87;;;;;;;;;;5055035;28;20209;-84
2023/08/23 06:49:29;;;;;;;6.47;5.28;;;;;;;;;;5054537;28;20181;-84
2023/08/23 06:51:54;;;;;;;7.70;6.65;;;;;;;;;;5051106;28;20185;-84
2023/08/23 06:54:20;;;;;;;10.00;6.77;;;;;;;;;;5049701;28;20185;-84
2023/08/23 06:56:46;;;;;;;6.35;5.72;;;;;;;;;;5054422;28;20207;-85
2023/08/23 06:59:11;;;;;;;6.82;5.15;;;;;;;;;;5053717;28;20192;-84
2023/08/23 07:01:36;;;;;;;5.40;4.65;;;;;;;;;;5052780;28;20182;-84
2023/08/23 07:04:01;;;;;;;6.17;5.57;;;;;;;;;;5050190;28;20185;-85
2023/08/23 07:06:29;;;;;;;6.40;5.80;;;;;;;;;;5051664;28;20210;-85
2023/08/23 07:08:54;;;;;;;7.07;5.15;;;;;;;;;;5070509;28;20287;-85
2023/08/23 07:11:19;;;;;;;6.32;5.63;;;;;;;;;;5054455;28;20212;-84
2023/08/23 07:13:44;;;;;;;5.88;5.28;;;;;;;;;;5053855;28;20209;-85
2023/08/23 07:16:10;;;;;;;9.45;6.00;;;;;;;;;;5054139;28;20320;-85
2023/08/23 07:18:35;;;;;;;5.95;5.43;;;;;;;;;;5054884;28;20212;-85
2023/08/23 07:21:02;;;;;;;7.20;5.82;;;;;;;;;;5054994;28;20178;-85
2023/08/23 07:23:28;;;;;;;7.80;5.43;;;;;;;;;;5052744;28;20201;-85
2023/08/23 07:25:53;;;;;;;9.95;6.03;;;;;;;;;;5051978;28;20292;-85
2023/08/23 07:28:18;;;;;;;6.78;5.00;;;;;;;;;;5054346;28;20170;-85
2023/08/23 07:30:49;;;;;;;6.32;5.32;;;;;;;;;;5054883;28;20166;-85
2023/08/23 07:33:15;;;;;;;5.53;5.03;;;;;;;;;;5052772;28;20174;-85
2023/08/23 07:35:40;;;;;;;7.65;5.72;;;;;;;;;;5053163;28;20189;-85
2023/08/23 07:38:05;;;;;;;7.47;4.88;;;;;;;;;;5055274;28;20174;-85
2023/08/23 07:40:31;;;;;;;6.57;5.90;;;;;;;;;;5054078;28;20174;-85
2023/08/23 07:42:56;;;;;;;9.43;6.68;;;;;;;;;;5055189;28;20176;-85
2023/08/23 07:45:21;;;;;;;12.75;6.25;;;;;;;;;;5052970;28;20205;-85
2023/08/23 07:47:46;;;;;;;6.25;5.05;;;;;;;;;;5055193;28;20170;-85
2023/08/23 07:50:12;;;;;;;9.88;5.57;;;;;;;;;;5047710;28;20199;-85
2023/08/23 07:52:37;;;;;;;5.55;4.95;;;;;;;;;;5054238;28;20178;-85
2023/08/23 07:55:23;;;;;;;5.60;4.95;;;;;;;;;;5052864;28;20192;-85
2023/08/23 07:57:48;;;;;;;5.57;5.13;;;;;;;;;;5069659;28;20197;-85
2023/08/23 08:00:15;;;;;;;5.30;4.80;;;;;;;;;;5054458;28;20174;-85
2023/08/23 08:02:40;;;;;;;5.05;4.55;;;;;;;;;;5054414;28;20178;-85
2023/08/23 08:05:07;;;;;;;5.45;4.43;;;;;;;;;;5053331;28;20168;-85
2023/08/23 08:07:33;;;;;;;6.10;5.50;;;;;;;;;;5053187;28;20190;-85
2023/08/23 08:09:58;;;;;;;5.35;4.93;;;;;;;;;;5053683;28;20266;-85
2023/08/23 08:12:23;;;;;;;6.43;5.10;;;;;;;;;;5052700;28;20181;-88
2023/08/23 08:14:49;;;;;;;8.88;5.53;;;;;;;;;;5053616;28;20211;-85
2023/08/23 08:17:14;;;;;;;5.80;5.30;;;;;;;;;;5071640;28;20176;-85
2023/08/23 08:19:39;;;;;;;7.80;5.47;;;;;;;;;;5053770;28;20182;-85
2023/08/23 08:22:04;;;;;;;6.05;5.45;;;;;;;;;;5053083;28;20174;-85
2023/08/23 08:24:30;;;;;;;8.10;5.57;;;;;;;;;;5052681;28;20178;-85
2023/08/23 08:26:55;;;;;;;6.03;5.32;;;;;;;;;;5053926;28;20278;-86
2023/08/23 08:29:21;;;;;;;6.03;5.53;;;;;;;;;;5052999;28;20173;-85
2023/08/23 08:31:49;;;;;;;6.65;5.80;;;;;;;;;;5071914;28;20169;-85
2023/08/23 08:34:15;;;;;;;6.85;5.47;;;;;;;;;;5052120;28;20174;-85
2023/08/23 08:36:40;;;;;;;6.38;5.30;;;;;;;;;;5051221;28;20192;-85
2023/08/23 08:39:05;;;;;;;9.15;5.65;;;;;;;;;;5050907;28;20297;-85
2023/08/23 08:41:33;;;;;;;6.60;5.63;;;;;;;;;;5054227;28;20181;-86
2023/08/23 08:43:59;;;;;;;8.20;7.15;;;;;;;;;;5057217;28;20188;-85
2023/08/23 08:46:25;;;;;;;10.93;5.55;;;;;;;;;;5053053;28;20264;-85
2023/08/23 08:48:50;;;;;;;5.40;4.97;;;;;;;;;;5053186;28;20178;-85
2023/08/23 08:51:19;;;;;;;7.10;5.45;;;;;;;;;;5054218;28;20256;-86
2023/08/23 08:53:47;;;;;;;8.55;5.93;;;;;;;;;;5073908;28;20269;-85
2023/08/23 08:56:13;;;;;;;8.65;5.57;;;;;;;;;;5051715;28;20197;-85
2023/08/23 08:58:39;;;;;;;5.60;5.10;;;;;;;;;;5070326;28;20193;-85
2023/08/23 09:01:05;;;;;;;8.18;4.50;;;;;;;;;;5052194;28;20227;-85
2023/08/23 09:03:30;;;;;;;5.78;4.95;;;;;;;;;;5053792;28;20169;-85
2023/08/23 09:05:56;;;;;;;5.10;4.60;;;;;;;;;;5052390;28;20193;-85
2023/08/23 09:08:21;;;;;;;6.63;4.75;;;;;;;;;;5051227;28;20217;-85
2023/08/23 09:10:47;;;;;;;6.18;5.10;;;;;;;;;;5071435;28;20205;-86
2023/08/23 09:13:12;;;;;;;5.72;4.75;;;;;;;;;;5051923;28;20174;-85
2023/08/23 09:15:37;;;;;;;5.90;5.18;;;;;;;;;;5051348;28;20190;-85
2023/08/23 09:18:03;;;;;;;5.80;5.30;;;;;;;;;;5049846;28;20185;-85
2023/08/23 09:20:28;;;;;;;11.18;6.35;;;;;;;;;;5070533;28;20208;-85
2023/08/23 09:22:54;;;;;;;9.23;5.70;;;;;;;;;;5052929;28;20185;-85
2023/08/23 09:25:20;;;;;;;5.65;4.90;;;;;;;;;;5054637;28;20193;-85
2023/08/23 09:27:45;;;;;;;5.47;4.95;;;;;;;;;;5054310;28;20241;-85
2023/08/23 09:30:11;;;;;;;5.32;4.70;;;;;;;;;;5051185;28;20311;-85
2023/08/23 09:32:36;;;;;;;5.63;5.10;;;;;;;;;;5049950;28;20238;-85
2023/08/23 09:35:11;;;;;;;5.72;4.80;;;;;;;;;;5052522;28;20261;-85
2023/08/23 09:37:44;;;;;;;5.10;4.60;;;;;;;;;;5046090;28;20177;-85
2023/08/23 09:40:18;;;;;;;5.60;5.10;;;;;;;;;;5049931;28;20205;-85
2023/08/23 09:42:44;;;;;;;5.53;4.97;;;;;;;;;;5054908;28;20173;-85
2023/08/23 09:45:10;;;;;;;6.60;4.75;;;;;;;;;;5070540;28;20173;-85
2023/08/23 09:47:36;;;;;;;8.57;5.72;;;;;;;;;;5055019;28;20168;-85
2023/08/23 09:50:02;;;;;;;7.63;4.78;;;;;;;;;;5051816;28;20263;-85
2023/08/23 09:52:30;;;;;;;7.05;5.28;;;;;;;;;;5052217;28;20186;-85
2023/08/23 09:54:55;;;;;;;5.32;4.88;;;;;;;;;;5051244;28;20177;-86
2023/08/23 09:57:21;;;;;;;6.43;5.82;;;;;;;;;;5053544;28;20178;-85
2023/08/23 09:59:46;;;;;;;59.05;10.07;;;;;;;;;;5069240;28;20169;-84
2023/08/23 10:02:14;;;;;;;8.43;5.60;;;;;;;;;;5051269;28;20176;-85
2023/08/23 10:04:40;;;;;;;6.07;5.57;;;;;;;;;;5066844;28;20194;-85
2023/08/23 10:07:06;;;;;;;5.63;5.07;;;;;;;;;;5050207;28;20220;-85
2023/08/23 10:09:32;;;;;;;7.00;5.55;;;;;;;;;;5054496;28;20217;-86
2023/08/23 10:11:57;;;;;;;5.05;4.65;;;;;;;;;;5057669;28;20230;-85
2023/08/23 10:14:23;;;;;;;6.93;5.25;;;;;;;;;;5057876;28;20223;-85
2023/08/23 10:16:49;;;;;;;7.88;5.60;;;;;;;;;;5057754;28;20181;-85
2023/08/23 10:19:14;;;;;;;6.10;5.47;;;;;;;;;;5050003;28;20173;-85
2023/08/23 10:21:40;;;;;;;6.10;5.50;;;;;;;;;;5051471;28;20203;-85
2023/08/23 10:24:05;;;;;;;5.00;4.60;;;;;;;;;;5052200;28;20264;-85
2023/08/23 10:26:43;;;;;;;8.50;5.93;;;;;;;;;;5053848;28;20220;-85
2023/08/23 10:29:09;;;;;;;6.03;5.32;;;;;;;;;;5053492;28;20269;-85
2023/08/23 10:31:34;;;;;;;5.90;5.35;;;;;;;;;;5060327;28;20185;-85
2023/08/23 10:34:00;;;;;;;6.70;5.22;;;;;;;;;;5059641;28;20283;-85
2023/08/23 10:36:27;;;;;;;6.00;5.15;;;;;;;;;;5058578;28;20212;-85
2023/08/23 10:38:56;;;;;;;6.22;4.28;;;;;;;;;;5054672;28;20296;-85
2023/08/23 10:41:22;;;;;;;4.70;4.30;;;;;;;;;;5055734;28;20185;-84
2023/08/23 10:43:48;;;;;;;6.50;5.40;;;;;;;;;;5068164;28;20177;-85
2023/08/23 10:46:15;;;;;;;6.18;5.55;;;;;;;;;;5072706;28;20287;-85
2023/08/23 10:48:41;;;;;;;7.03;5.55;;;;;;;;;;5056753;28;20170;-85
2023/08/23 10:51:06;;;;;;;5.32;4.70;;;;;;;;;;5056772;28;20165;-85
2023/08/23 10:53:32;;;;;;;7.40;5.30;;;;;;;;;;5056064;28;20174;-85
2023/08/23 10:56:00;;;;;;;7.35;5.82;;;;;;;;;;5053115;28;20182;-85
2023/08/23 10:58:25;;;;;;;5.72;5.15;;;;;;;;;;5052661;28;20178;-85
2023/08/23 11:00:53;;;;;;;6.60;5.00;;;;;;;;;;5052263;28;20197;-85
2023/08/23 11:03:19;;;;;;;6.70;6.10;;;;;;;;;;5051387;28;20277;-84
2023/08/23 11:05:44;;;;;;;6.50;5.28;;;;;;;;;;5053763;28;20217;-85
2023/08/23 11:08:10;;;;;;;6.25;4.80;;;;;;;;;;5014133;28;1153368;-85
2023/08/23 11:10:36;;;;;;;5.38;4.97;;;;;;;;;;5060409;28;20182;-85
2023/08/23 11:13:01;;;;;;;5.60;5.10;;;;;;;;;;5065054;28;20180;-85
2023/08/23 11:15:26;;;;;;;6.00;5.00;;;;;;;;;;5054901;28;20239;-84
2023/08/23 11:17:52;;;;;;;14.30;5.63;;;;;;;;;;5055449;28;20288;-85
2023/08/23 11:20:17;;;;;;;5.50;4.85;;;;;;;;;;5054677;28;20179;-85
2023/08/23 11:22:43;;;;;;;18.35;7.22;;;;;;;;;;5055439;28;20181;-84
2023/08/23 11:25:08;;;;;;;7.57;4.97;;;;;;;;;;5053873;28;20174;-85
2023/08/23 11:27:33;;;;;;;6.10;5.47;;;;;;;;;;5051255;28;20176;-86
2023/08/23 11:29:59;;;;;;;11.02;5.78;;;;;;;;;;5054642;28;20169;-84
2023/08/23 11:32:25;;;;;;;6.03;5.20;;;;;;;;;;5055641;28;20178;-85
2023/08/23 11:34:50;;;;;;;9.25;5.40;;;;;;;;;;5052952;28;20238;-85
2023/08/23 11:37:15;;;;;;;5.55;5.00;;;;;;;;;;5054938;28;20227;-85
2023/08/23 11:39:40;;;;;;;5.18;4.72;;;;;;;;;;5072578;28;20272;-84
2023/08/23 11:42:06;;;;;;;4.80;4.40;;;;;;;;;;5053126;28;20220;-85
2023/08/23 11:44:31;;;;;;;6.72;4.90;;;;;;;;;;5054767;28;20177;-85
2023/08/23 11:46:57;;;;;;;5.50;5.00;;;;;;;;;;5055032;28;20197;-85
2023/08/23 11:49:22;;;;;;;7.88;4.72;;;;;;;;;;5072186;28;20172;-85
2023/08/23 11:51:49;;;;;;;18.73;5.60;;;;;;;;;;5054064;28;20186;-85
2023/08/23 11:54:15;;;;;;;7.50;5.13;;;;;;;;;;5054786;28;20181;-85
2023/08/23 11:56:41;;;;;;;5.15;4.65;;;;;;;;;;5055378;28;20178;-85
2023/08/23 11:59:06;;;;;;;6.55;4.82;;;;;;;;;;5050380;28;20185;-85
2023/08/23 12:01:34;;;;;;;6.65;4.80;;;;;;;;;;5054296;28;20237;-85
2023/08/23 12:03:59;;;;;;;7.55;5.07;;;;;;;;;;5056644;28;20193;-85
2023/08/23 12:06:24;;;;;;;7.30;4.95;;;;;;;;;;5053001;28;20240;-85
2023/08/23 12:08:49;;;;;;;5.80;5.30;;;;;;;;;;5052380;28;20282;-86
2023/08/23 12:11:15;;;;;;;5.32;4.68;;;;;;;;;;5051057;28;20424;-85
2023/08/23 12:13:41;;;;;;;7.18;4.80;;;;;;;;;;5047858;28;20178;-86
2023/08/23 12:16:07;;;;;;;5.75;4.90;;;;;;;;;;5053926;28;20268;-86
2023/08/23 12:18:33;;;;;;;6.18;4.45;;;;;;;;;;5055850;28;20181;-85
2023/08/23 12:20:58;;;;;;;6.63;4.97;;;;;;;;;;5055939;28;20169;-85
2023/08/23 12:23:23;;;;;;;5.07;4.65;;;;;;;;;;5053008;28;20181;-85
2023/08/23 12:25:48;;;;;;;20.70;5.65;;;;;;;;;;5053533;28;20201;-86
2023/08/23 12:28:14;;;;;;;19.15;6.40;;;;;;;;;;5054524;28;20212;-85
2023/08/23 12:30:39;;;;;;;5.50;5.00;;;;;;;;;;5053942;28;20170;-85
2023/08/23 12:33:05;;;;;;;6.70;5.00;;;;;;;;;;5054720;28;20235;-85
2023/08/23 12:35:30;;;;;;;5.32;4.80;;;;;;;;;;5048511;28;20186;-86
2023/08/23 12:37:56;;;;;;;5.60;4.57;;;;;;;;;;5050450;28;20177;-85
2023/08/23 12:40:21;;;;;;;6.90;5.20;;;;;;;;;;5070495;28;20189;-85
2023/08/23 12:42:46;;;;;;;7.45;5.57;;;;;;;;;;5050902;28;20185;-85
2023/08/23 12:45:12;;;;;;;5.00;4.47;;;;;;;;;;5052555;28;20181;-86
2023/08/23 12:47:37;;;;;;;4.57;4.20;;;;;;;;;;5053378;28;20172;-85
2023/08/23 12:50:02;;;;;;;10.07;4.80;;;;;;;;;;5070498;28;20177;-86
2023/08/23 12:52:27;;;;;;;8.13;5.10;;;;;;;;;;5053765;28;20180;-85
2023/08/23 12:54:53;;;;;;;6.20;4.93;;;;;;;;;;5049229;28;20169;-85
2023/08/23 12:57:18;;;;;;;5.25;4.85;;;;;;;;;;5069678;28;20185;-85
2023/08/23 12:59:43;;;;;;;5.32;4.65;;;;;;;;;;5051896;28;20208;-85
2023/08/23 13:02:08;;;;;;;5.22;4.75;;;;;;;;;;5053188;28;20177;-85
2023/08/23 13:04:34;;;;;;;5.22;4.78;;;;;;;;;;5053158;28;20180;-85
2023/08/23 13:06:59;;;;;;;6.40;4.88;;;;;;;;;;5053247;28;20217;-85
2023/08/23 13:09:24;;;;;;;6.68;5.35;;;;;;;;;;5071166;28;20229;-86
2023/08/23 13:11:49;;;;;;;6.07;4.82;;;;;;;;;;5063250;28;20173;-86
2023/08/23 13:14:15;;;;;;;6.55;5.45;;;;;;;;;;5053214;28;20186;-85
2023/08/23 13:16:40;;;;;;;7.28;4.97;;;;;;;;;;5052096;28;20181;-85
2023/08/23 13:19:05;;;;;;;5.07;4.55;;;;;;;;;;5051298;28;20170;-85
2023/08/23 13:21:31;;;;;;;4.47;4.15;;;;;;;;;;5046315;28;20177;-86
2023/08/23 13:24:01;;;;;;;5.50;5.03;;;;;;;;;;5051320;28;20173;-86
2023/08/23 13:26:27;;;;;;;5.03;4.53;;;;;;;;;;5070668;28;20189;-85
2023/08/23 13:28:52;;;;;;;4.97;4.55;;;;;;;;;;5050681;28;20162;-85
2023/08/23 13:31:17;;;;;;;5.53;4.72;;;;;;;;;;5056298;28;20174;-85
2023/08/23 13:33:46;;;;;;;5.47;4.93;;;;;;;;;;5052225;28;20181;-85
2023/08/23 13:36:12;;;;;;;6.93;5.13;;;;;;;;;;5051388;28;20274;-85
2023/08/23 13:38:37;;;;;;;7.97;5.10;;;;;;;;;;5052334;28;20185;-85
2023/08/23 13:41:02;;;;;;;4.80;4.30;;;;;;;;;;5051499;28;20211;-86
2023/08/23 13:43:28;;;;;;;4.95;4.43;;;;;;;;;;5054060;28;20265;-85
2023/08/23 13:45:53;;;;;;;5.70;4.80;;;;;;;;;;5056139;28;20288;-85
2023/08/23 13:48:18;;;;;;;4.63;4.22;;;;;;;;;;5058127;28;20173;-85
2023/08/23 13:50:43;;;;;;;5.22;4.78;;;;;;;;;;5057410;28;20189;-85
2023/08/23 13:53:08;;;;;;;4.80;4.50;;;;;;;;;;5057315;28;20170;-86
2023/08/23 13:55:34;;;;;;;5.13;4.28;;;;;;;;;;5060756;28;20283;-85
2023/08/23 13:57:59;;;;;;;5.85;4.70;;;;;;;;;;5053899;28;20189;-86
2023/08/23 14:00:24;;;;;;;4.68;4.35;;;;;;;;;;5054710;28;20173;-85
2023/08/23 14:02:49;;;;;;;6.50;5.15;;;;;;;;;;5056987;28;20192;-85
2023/08/23 14:05:15;;;;;;;4.45;4.05;;;;;;;;;;5057598;28;20173;-85
2023/08/23 14:07:40;;;;;;;4.78;4.38;;;;;;;;;;5056636;28;20342;-85
2023/08/23 14:10:05;;;;;;;5.65;4.20;;;;;;;;;;5054359;28;20290;-85
2023/08/23 14:12:31;;;;;;;4.05;3.72;;;;;;;;;;5056424;28;20180;-85
2023/08/23 14:14:56;;;;;;;4.15;3.75;;;;;;;;;;5058266;28;20177;-85
2023/08/23 14:17:21;;;;;;;6.07;4.05;;;;;;;;;;5052923;28;20185;-85
2023/08/23 14:19:48;;;;;;;8.70;4.38;;;;;;;;;;5051459;28;20189;-85
2023/08/23 14:22:13;;;;;;;4.40;4.10;;;;;;;;;;5055845;28;20227;-85
2023/08/23 14:24:39;;;;;;;6.60;4.35;;;;;;;;;;5055748;28;20169;-85
2023/08/23 14:27:05;;;;;;;4.18;3.85;;;;;;;;;;5060961;28;20206;-85
2023/08/23 14:29:31;;;;;;;4.47;3.85;;;;;;;;;;5056647;28;20204;-85
2023/08/23 14:31:57;;;;;;;5.78;5.25;;;;;;;;;;5053086;28;20165;-85
2023/08/23 14:34:22;;;;;;;4.78;4.30;;;;;;;;;;5054951;28;20181;-85